createdAt,value
2023-02-24T00:00:53.176Z,11.38
2023-02-24T00:02:02.115Z,11.75
2023-02-24T00:03:11.235Z,11.61
2023-02-24T00:04:13.844Z,11.14
2023-02-24T00:05:15.668Z,10.67
2023-02-24T00:06:17.443Z,10.22
2023-02-24T00:07:20.431Z,9.81
2023-02-24T00:08:22.729Z,9.45
2023-02-24T00:09:27.922Z,9.17
2023-02-24T00:10:30.363Z,9.23
2023-02-24T00:11:33.221Z,9.69
2023-02-24T00:12:35.305Z,10.29
2023-02-24T00:13:37.206Z,10.88
2023-02-24T00:14:42.796Z,11.38
2023-02-24T00:15:45.794Z,11.80
2023-02-24T00:16:48.363Z,11.84
2023-02-24T00:17:50.239Z,11.52
2023-02-24T00:18:52.735Z,11.07
2023-02-24T00:19:54.646Z,10.59
2023-02-24T00:20:59.256Z,10.16
2023-02-24T00:22:02.620Z,9.76
2023-02-24T00:23:04.425Z,9.40
2023-02-24T00:24:07.191Z,9.18
2023-02-24T00:25:09.485Z,9.41
2023-02-24T00:26:13.764Z,9.92
2023-02-24T00:27:15.689Z,10.52
2023-02-24T00:28:20.332Z,11.09
2023-02-24T00:29:24.202Z,11.54
2023-02-24T00:30:29.423Z,11.88
2023-02-24T00:31:31.364Z,11.82
2023-02-24T00:32:35.965Z,11.44
2023-02-24T00:33:39.409Z,10.94
2023-02-24T00:34:41.346Z,10.47
2023-02-24T00:35:43.170Z,10.06
2023-02-24T00:36:44.899Z,9.71
2023-02-24T00:37:51.466Z,9.41
2023-02-24T00:38:57.369Z,9.43
2023-02-24T00:39:59.331Z,9.90
2023-02-24T00:41:15.711Z,10.47
2023-02-24T00:42:18.177Z,11.14
2023-02-24T00:43:20.341Z,11.60
2023-02-24T00:44:24.491Z,11.96
2023-02-24T00:45:30.418Z,11.96
2023-02-24T00:46:38.291Z,11.57
2023-02-24T00:47:40.624Z,11.07
2023-02-24T00:48:45.824Z,10.61
2023-02-24T00:49:48.530Z,10.17
2023-02-24T00:50:52.300Z,9.80
2023-02-24T00:51:54.819Z,9.50
2023-02-24T00:52:57.413Z,9.56
2023-02-24T00:54:00.448Z,10.03
2023-02-24T00:55:14.008Z,10.61
2023-02-24T00:56:27.848Z,11.27
2023-02-24T00:57:29.774Z,11.83
2023-02-24T00:58:32.389Z,12.14
2023-02-24T00:59:36.430Z,12.08
2023-02-24T01:00:38.942Z,11.71
2023-02-24T01:01:42.209Z,11.23
2023-02-24T01:02:47.921Z,10.77
2023-02-24T01:03:54.755Z,10.35
2023-02-24T01:04:57.682Z,9.97
2023-02-24T01:06:03.478Z,9.70
2023-02-24T01:07:10.985Z,9.79
2023-02-24T01:08:16.312Z,10.31
2023-02-24T01:09:23.022Z,10.91
2023-02-24T01:10:27.019Z,11.48
2023-02-24T01:11:53.897Z,11.95
2023-02-24T01:12:56.009Z,12.29
2023-02-24T01:13:58.016Z,12.08
2023-02-24T01:15:00.149Z,11.65
2023-02-24T01:16:02.422Z,11.15
2023-02-24T01:17:09.410Z,10.69
2023-02-24T01:18:11.318Z,10.26
2023-02-24T01:19:13.142Z,9.90
2023-02-24T01:20:16.988Z,9.67
2023-02-24T01:21:20.231Z,9.90
2023-02-24T01:22:29.918Z,10.42
2023-02-24T01:23:31.722Z,11.03
2023-02-24T01:24:38.111Z,11.52
2023-02-24T01:25:47.414Z,11.98
2023-02-24T01:26:49.516Z,12.29
2023-02-24T01:27:52.792Z,12.19
2023-02-24T01:28:55.737Z,11.77
2023-02-24T01:29:57.567Z,11.28
2023-02-24T01:31:05.358Z,10.83
2023-02-24T01:32:13.143Z,10.39
2023-02-24T01:33:16.288Z,10.01
2023-02-24T01:34:18.818Z,9.81
2023-02-24T01:35:20.757Z,10.03
2023-02-24T01:36:25.921Z,10.52
2023-02-24T01:37:39.116Z,11.13
2023-02-24T01:38:49.438Z,11.73
2023-02-24T01:39:52.304Z,12.19
2023-02-24T01:40:59.562Z,12.45
2023-02-24T01:42:03.711Z,12.29
2023-02-24T01:43:08.814Z,11.85
2023-02-24T01:44:14.209Z,11.35
2023-02-24T01:45:21.914Z,10.88
2023-02-24T01:46:36.124Z,10.45
2023-02-24T01:47:38.716Z,10.05
2023-02-24T01:48:42.763Z,9.99
2023-02-24T01:49:48.926Z,10.37
2023-02-24T01:50:52.119Z,10.94
2023-02-24T01:52:02.184Z,11.50
2023-02-24T01:53:07.370Z,12.02
2023-02-24T01:54:15.745Z,12.44
2023-02-24T01:55:29.470Z,12.60
2023-02-24T01:56:32.761Z,12.24
2023-02-24T01:57:38.853Z,11.73
2023-02-24T01:58:40.948Z,11.19
2023-02-24T01:59:49.344Z,10.73
2023-02-24T02:00:51.855Z,10.30
2023-02-24T02:02:06.885Z,10.02
2023-02-24T02:03:19.825Z,10.21
2023-02-24T02:04:45.232Z,10.79
2023-02-24T02:05:52.409Z,11.51
2023-02-24T02:06:58.763Z,11.99
2023-02-24T02:08:02.684Z,12.39
2023-02-24T02:09:04.555Z,12.62
2023-02-24T02:10:08.340Z,12.48
2023-02-24T02:11:16.747Z,12.03
2023-02-24T02:12:18.979Z,11.46
2023-02-24T02:13:21.501Z,10.99
2023-02-24T02:14:29.811Z,10.56
2023-02-24T02:15:44.960Z,10.20
2023-02-24T02:17:24.978Z,10.28
2023-02-24T02:18:32.151Z,11.02
2023-02-24T02:20:16.034Z,11.57
2023-02-24T02:22:02.379Z,12.27
2023-02-24T02:23:44.333Z,12.74
2023-02-24T02:24:58.371Z,12.33
2023-02-24T02:26:28.653Z,11.74
2023-02-24T02:28:04.993Z,11.03
2023-02-24T02:29:26.358Z,10.39
2023-02-24T02:30:47.254Z,10.37
2023-02-24T02:32:08.260Z,10.94
2023-02-24T02:33:21.675Z,11.61
2023-02-24T02:34:55.669Z,12.19
2023-02-24T02:36:15.755Z,12.68
2023-02-24T02:37:49.180Z,12.90
2023-02-24T02:38:52.400Z,12.43
2023-02-24T02:40:18.806Z,11.93
2023-02-24T02:41:31.278Z,11.27
2023-02-24T02:42:51.569Z,10.80
2023-02-24T02:44:07.564Z,10.52
2023-02-24T02:45:23.349Z,10.88
2023-02-24T02:46:37.324Z,11.52
2023-02-24T02:47:47.034Z,12.10
2023-02-24T02:48:59.553Z,12.55
2023-02-24T02:50:08.237Z,12.91
2023-02-24T02:51:16.977Z,13.05
2023-02-24T02:52:32.089Z,12.72
2023-02-24T02:53:39.218Z,12.13
2023-02-24T02:54:51.781Z,11.59
2023-02-24T02:56:11.574Z,11.07
2023-02-24T02:57:23.412Z,10.66
2023-02-24T02:58:34.678Z,10.83
2023-02-24T02:59:52.033Z,11.35
2023-02-24T03:01:07.399Z,11.94
2023-02-24T03:02:13.137Z,12.45
2023-02-24T03:03:19.467Z,12.80
2023-02-24T03:04:25.556Z,13.07
2023-02-24T03:05:38.052Z,13.00
2023-02-24T03:07:03.311Z,12.48
2023-02-24T03:08:11.562Z,11.73
2023-02-24T03:09:29.648Z,11.18
2023-02-24T03:10:34.358Z,10.68
2023-02-24T03:11:36.456Z,10.70
2023-02-24T03:12:42.120Z,11.10
2023-02-24T03:13:51.573Z,11.63
2023-02-24T03:15:10.886Z,12.14
2023-02-24T03:16:17.413Z,12.60
2023-02-24T03:17:40.858Z,12.95
2023-02-24T03:18:57.244Z,13.13
2023-02-24T03:20:16.268Z,12.84
2023-02-24T03:21:35.187Z,12.17
2023-02-24T03:22:46.012Z,11.47
2023-02-24T03:23:53.806Z,10.90
2023-02-24T03:24:57.017Z,10.65
2023-02-24T03:26:24.855Z,10.90
2023-02-24T03:27:49.706Z,11.48
2023-02-24T03:29:06.924Z,12.06
2023-02-24T03:30:16.048Z,12.49
2023-02-24T03:31:28.822Z,12.82
2023-02-24T03:32:51.641Z,13.08
2023-02-24T03:34:18.925Z,13.06
2023-02-24T03:35:36.853Z,12.43
2023-02-24T03:36:39.226Z,11.75
2023-02-24T03:37:41.177Z,11.23
2023-02-24T03:38:43.972Z,10.83
2023-02-24T03:39:47.849Z,10.85
2023-02-24T03:40:56.091Z,11.27
2023-02-24T03:42:20.248Z,11.78
2023-02-24T03:43:34.759Z,12.34
2023-02-24T03:44:36.946Z,12.76
2023-02-24T03:45:41.907Z,13.05
2023-02-24T03:46:44.356Z,13.30
2023-02-24T03:47:47.348Z,13.30
2023-02-24T03:49:02.025Z,12.92
2023-02-24T03:50:13.910Z,12.26
2023-02-24T03:51:23.542Z,11.63
2023-02-24T03:52:52.319Z,11.08
2023-02-24T03:54:09.104Z,10.97
2023-02-24T03:55:20.530Z,11.43
2023-02-24T03:56:29.582Z,11.95
2023-02-24T03:58:00.189Z,12.40
2023-02-24T04:00:16.722Z,12.91
2023-02-24T04:01:55.360Z,13.39
2023-02-24T04:03:09.650Z,13.13
2023-02-24T04:04:40.016Z,12.52
2023-02-24T04:05:58.591Z,11.68
2023-02-24T04:07:37.984Z,11.11
2023-02-24T04:09:08.976Z,11.15
2023-02-24T04:10:54.316Z,11.80
2023-02-24T04:12:09.171Z,12.52
2023-02-24T04:13:35.530Z,12.89
2023-02-24T04:14:59.014Z,13.28
2023-02-24T04:16:17.098Z,13.53
2023-02-24T04:17:38.647Z,13.39
2023-02-24T04:18:41.750Z,12.75
2023-02-24T04:19:49.310Z,12.18
2023-02-24T04:20:53.405Z,11.59
2023-02-24T04:21:57.377Z,11.16
2023-02-24T04:23:10.688Z,11.22
2023-02-24T04:24:18.043Z,11.69
2023-02-24T04:25:46.081Z,12.19
2023-02-24T04:26:51.459Z,12.74
2023-02-24T04:27:59.060Z,13.07
2023-02-24T04:29:01.648Z,13.34
2023-02-24T04:30:05.040Z,13.52
2023-02-24T04:31:17.722Z,13.47
2023-02-24T04:32:27.125Z,12.97
2023-02-24T04:33:29.201Z,12.36
2023-02-24T04:34:32.644Z,11.81
2023-02-24T04:35:35.742Z,11.32
2023-02-24T04:36:38.508Z,11.14
2023-02-24T04:37:44.551Z,11.39
2023-02-24T04:38:47.262Z,11.83
2023-02-24T04:39:50.998Z,12.26
2023-02-24T04:41:08.715Z,12.65
2023-02-24T04:42:10.962Z,12.98
2023-02-24T04:43:13.210Z,13.22
2023-02-24T04:44:21.174Z,13.42
2023-02-24T04:45:27.020Z,13.53
2023-02-24T04:46:32.543Z,13.26
2023-02-24T04:47:37.245Z,12.72
2023-02-24T04:48:39.084Z,12.13
2023-02-24T04:49:44.636Z,11.59
2023-02-24T04:50:47.062Z,11.18
2023-02-24T04:51:48.974Z,11.26
2023-02-24T04:53:03.057Z,11.60
2023-02-24T04:54:08.653Z,12.11
2023-02-24T04:55:11.063Z,12.51
2023-02-24T04:56:13.285Z,12.84
2023-02-24T04:57:15.221Z,13.11
2023-02-24T04:58:20.592Z,13.31
2023-02-24T04:59:24.570Z,13.48
2023-02-24T05:00:33.420Z,13.47
2023-02-24T05:01:35.233Z,13.02
2023-02-24T05:02:38.249Z,12.44
2023-02-24T05:03:42.949Z,11.86
2023-02-24T05:04:45.006Z,11.35
2023-02-24T05:05:56.744Z,11.18
2023-02-24T05:06:58.762Z,11.49
2023-02-24T05:08:04.770Z,11.92
2023-02-24T05:09:19.449Z,12.36
2023-02-24T05:10:28.247Z,12.77
2023-02-24T05:11:34.999Z,13.06
2023-02-24T05:12:40.019Z,13.29
2023-02-24T05:13:45.759Z,13.47
2023-02-24T05:14:49.595Z,13.58
2023-02-24T05:15:51.433Z,13.37
2023-02-24T05:16:58.448Z,12.88
2023-02-24T05:18:07.595Z,12.28
2023-02-24T05:19:33.858Z,11.70
2023-02-24T05:21:01.944Z,11.30
2023-02-24T05:22:11.828Z,11.71
2023-02-24T05:23:14.454Z,12.17
2023-02-24T05:24:17.493Z,12.57
2023-02-24T05:25:21.148Z,12.92
2023-02-24T05:26:27.248Z,13.21
2023-02-24T05:27:53.002Z,13.46
2023-02-24T05:28:56.724Z,13.72
2023-02-24T05:29:58.601Z,13.72
2023-02-24T05:31:14.958Z,13.35
2023-02-24T05:32:17.146Z,12.64
2023-02-24T05:33:21.750Z,12.06
2023-02-24T05:34:24.384Z,11.53
2023-02-24T05:35:26.514Z,11.33
2023-02-24T05:36:33.292Z,11.57
2023-02-24T05:37:42.102Z,12.02
2023-02-24T05:38:49.022Z,12.47
2023-02-24T05:40:11.996Z,12.85
2023-02-24T05:41:18.534Z,13.22
2023-02-24T05:42:20.907Z,13.44
2023-02-24T05:43:26.481Z,13.60
2023-02-24T05:44:28.614Z,13.67
2023-02-24T05:45:30.591Z,13.37
2023-02-24T05:46:37.172Z,12.84
2023-02-24T05:47:40.221Z,12.23
2023-02-24T05:48:44.048Z,11.68
2023-02-24T05:49:48.045Z,11.31
2023-02-24T05:50:55.566Z,11.40
2023-02-24T05:52:01.869Z,11.78
2023-02-24T05:53:24.240Z,12.20
2023-02-24T05:54:31.311Z,12.65
2023-02-24T05:55:36.959Z,12.93
2023-02-24T05:56:44.518Z,13.16
2023-02-24T05:57:46.604Z,13.37
2023-02-24T05:59:02.359Z,13.51
2023-02-24T06:00:11.049Z,13.63
2023-02-24T06:01:21.761Z,13.36
2023-02-24T06:02:27.490Z,12.75
2023-02-24T06:03:31.116Z,12.11
2023-02-24T06:04:39.848Z,11.55
2023-02-24T06:05:43.359Z,11.29
2023-02-24T06:06:45.926Z,11.51
2023-02-24T06:07:47.728Z,11.91
2023-02-24T06:08:50.285Z,12.32
2023-02-24T06:09:58.161Z,12.66
2023-02-24T06:11:00.267Z,13.01
2023-02-24T06:12:02.618Z,13.26
2023-02-24T06:13:06.814Z,13.46
2023-02-24T06:14:10.701Z,13.62
2023-02-24T06:15:12.721Z,13.75
2023-02-24T06:16:16.995Z,13.70
2023-02-24T06:17:20.596Z,13.26
2023-02-24T06:18:22.428Z,12.65
2023-02-24T06:19:25.496Z,12.06
2023-02-24T06:20:29.857Z,11.52
2023-02-24T06:21:31.973Z,11.34
2023-02-24T06:22:42.303Z,11.58
2023-02-24T06:23:45.305Z,12.02
2023-02-24T06:24:49.607Z,12.41
2023-02-24T06:25:51.622Z,12.73
2023-02-24T06:26:53.751Z,13.00
2023-02-24T06:27:56.434Z,13.24
2023-02-24T06:28:59.778Z,13.42
2023-02-24T06:30:02.673Z,13.55
2023-02-24T06:31:06.865Z,13.67
2023-02-24T06:32:08.948Z,13.63
2023-02-24T06:33:10.880Z,13.23
2023-02-24T06:34:18.377Z,12.65
2023-02-24T06:35:21.247Z,12.00
2023-02-24T06:36:23.346Z,11.49
2023-02-24T06:37:25.388Z,11.36
2023-02-24T06:38:27.401Z,11.62
2023-02-24T06:39:32.653Z,11.99
2023-02-24T06:40:34.963Z,12.38
2023-02-24T06:41:38.221Z,12.70
2023-02-24T06:42:40.106Z,12.98
2023-02-24T06:43:44.966Z,13.22
2023-02-24T06:44:47.088Z,13.41
2023-02-24T06:45:50.297Z,13.57
2023-02-24T06:46:52.090Z,13.72
2023-02-24T06:47:54.046Z,13.77
2023-02-24T06:48:58.107Z,13.51
2023-02-24T06:49:59.975Z,12.96
2023-02-24T06:51:13.709Z,12.36
2023-02-24T06:52:18.885Z,11.71
2023-02-24T06:53:21.800Z,11.48
2023-02-24T06:54:28.397Z,11.70
2023-02-24T06:55:30.524Z,12.09
2023-02-24T06:56:38.535Z,12.47
2023-02-24T06:57:43.904Z,12.84
2023-02-24T06:58:50.832Z,13.12
2023-02-24T06:59:52.837Z,13.34
2023-02-24T07:00:58.226Z,13.51
2023-02-24T07:02:02.388Z,13.66
2023-02-24T07:03:15.442Z,13.77
2023-02-24T07:04:17.576Z,13.79
2023-02-24T07:05:20.032Z,13.44
2023-02-24T07:06:24.113Z,12.89
2023-02-24T07:07:26.545Z,12.30
2023-02-24T07:08:28.465Z,11.76
2023-02-24T07:09:32.122Z,11.54
2023-02-24T07:10:35.021Z,11.73
2023-02-24T07:11:41.539Z,12.09
2023-02-24T07:12:43.548Z,12.50
2023-02-24T07:13:47.955Z,12.83
2023-02-24T07:14:52.414Z,13.13
2023-02-24T07:15:55.033Z,13.36
2023-02-24T07:16:58.527Z,13.56
2023-02-24T07:18:00.549Z,13.73
2023-02-24T07:19:11.306Z,13.87
2023-02-24T07:20:25.473Z,13.97
2023-02-24T07:21:30.372Z,13.70
2023-02-24T07:22:32.398Z,13.15
2023-02-24T07:23:34.918Z,12.57
2023-02-24T07:24:39.147Z,11.99
2023-02-24T07:25:48.806Z,11.63
2023-02-24T07:27:00.443Z,11.80
2023-02-24T07:28:02.272Z,12.25
2023-02-24T07:29:06.701Z,12.65
2023-02-24T07:30:10.293Z,13.02
2023-02-24T07:31:17.240Z,13.31
2023-02-24T07:32:22.430Z,13.55
2023-02-24T07:33:25.414Z,13.73
2023-02-24T07:34:28.422Z,13.88
2023-02-24T07:35:31.236Z,14.03
2023-02-24T07:36:38.953Z,14.05
2023-02-24T07:37:41.710Z,13.70
2023-02-24T07:38:45.420Z,13.15
2023-02-24T07:39:47.493Z,12.57
2023-02-24T07:40:50.068Z,12.01
2023-02-24T07:41:55.347Z,11.73
2023-02-24T07:42:57.735Z,11.90
2023-02-24T07:44:03.243Z,12.26
2023-02-24T07:45:06.575Z,12.64
2023-02-24T07:46:11.865Z,12.95
2023-02-24T07:47:15.925Z,13.23
2023-02-24T07:48:18.913Z,13.45
2023-02-24T07:49:26.156Z,13.63
2023-02-24T07:50:33.002Z,13.79
2023-02-24T07:51:36.123Z,13.93
2023-02-24T07:52:38.652Z,14.04
2023-02-24T07:53:41.723Z,13.90
2023-02-24T07:54:44.329Z,13.44
2023-02-24T07:55:46.572Z,12.88
2023-02-24T07:56:56.820Z,12.33
2023-02-24T07:58:01.569Z,11.87
2023-02-24T07:59:11.158Z,11.94
2023-02-24T08:00:19.769Z,12.34
2023-02-24T08:01:24.685Z,12.80
2023-02-24T08:02:26.880Z,13.19
2023-02-24T08:03:30.134Z,13.51
2023-02-24T08:04:36.462Z,13.78
2023-02-24T08:05:38.689Z,14.03
2023-02-24T08:06:47.966Z,14.22
2023-02-24T08:07:51.820Z,14.37
2023-02-24T08:08:59.224Z,14.27
2023-02-24T08:10:13.834Z,13.75
2023-02-24T08:11:16.004Z,13.04
2023-02-24T08:12:21.980Z,12.46
2023-02-24T08:13:24.447Z,12.04
2023-02-24T08:14:35.487Z,12.09
2023-02-24T08:15:37.752Z,12.48
2023-02-24T08:16:45.675Z,12.86
2023-02-24T08:17:47.870Z,13.24
2023-02-24T08:18:50.697Z,13.55
2023-02-24T08:20:14.658Z,13.80
2023-02-24T08:21:19.741Z,14.08
2023-02-24T08:22:24.459Z,14.26
2023-02-24T08:23:27.579Z,14.39
2023-02-24T08:24:30.278Z,14.27
2023-02-24T08:25:35.717Z,13.81
2023-02-24T08:26:44.888Z,13.20
2023-02-24T08:28:12.100Z,12.55
2023-02-24T16:36:12.968Z,9.16
2023-02-24T16:37:26.368Z,9.77
2023-02-24T16:38:31.243Z,10.42
2023-02-24T16:39:34.015Z,10.92
2023-02-24T16:40:39.012Z,11.23
2023-02-24T16:41:41.167Z,11.10
2023-02-24T16:42:43.258Z,10.71
2023-02-24T16:43:45.311Z,10.24
2023-02-24T16:44:49.308Z,9.78
2023-02-24T16:45:55.907Z,9.35
2023-02-24T16:46:57.924Z,8.96
2023-02-24T16:48:04.652Z,8.66
2023-02-24T16:49:10.406Z,8.62
2023-02-24T16:50:23.099Z,9.05
2023-02-24T16:51:26.035Z,9.73
2023-02-24T16:52:28.893Z,10.30
2023-02-24T16:53:31.736Z,10.79
2023-02-24T16:54:33.501Z,11.13
2023-02-24T16:55:35.747Z,11.06
2023-02-24T16:56:38.156Z,10.68
2023-02-24T16:57:41.130Z,10.21
2023-02-24T16:58:43.315Z,9.75
2023-02-24T16:59:45.661Z,9.35
2023-02-24T17:00:50.818Z,8.99
2023-02-24T17:01:55.906Z,8.67
2023-02-24T17:02:58.316Z,8.41
2023-02-24T17:04:00.524Z,8.51
2023-02-24T17:05:02.774Z,8.99
2023-02-24T17:06:05.817Z,9.57
2023-02-24T17:07:11.082Z,10.14
2023-02-24T17:08:14.741Z,10.62
2023-02-24T17:09:17.995Z,10.90
2023-02-24T17:10:21.769Z,10.74
2023-02-24T17:11:28.056Z,10.31
2023-02-24T17:12:29.897Z,9.80
2023-02-24T17:13:32.013Z,9.35
2023-02-24T17:14:33.896Z,8.96
2023-02-24T17:15:36.308Z,8.60
2023-02-24T17:16:41.844Z,8.29
2023-02-24T17:17:43.853Z,8.07
2023-02-24T17:18:45.931Z,8.29
2023-02-24T17:19:47.965Z,8.85
2023-02-24T17:20:50.296Z,9.45
2023-02-24T17:21:52.472Z,10.01
2023-02-24T17:22:54.977Z,10.49
2023-02-24T17:23:56.986Z,10.71
2023-02-24T17:24:59.403Z,10.50
2023-02-24T17:26:02.857Z,10.07
2023-02-24T17:27:04.841Z,9.60
2023-02-24T17:28:07.267Z,9.16
2023-02-24T17:29:10.035Z,8.77
2023-02-24T17:30:19.245Z,8.42
2023-02-24T17:31:21.293Z,8.08
2023-02-24T17:32:23.407Z,7.90
2023-02-24T17:33:25.765Z,8.13
2023-02-24T17:34:28.118Z,8.69
2023-02-24T17:35:30.192Z,9.31
2023-02-24T17:36:32.841Z,9.89
2023-02-24T17:37:35.532Z,10.37
2023-02-24T17:38:38.041Z,10.53
2023-02-24T17:39:40.000Z,10.27
2023-02-24T17:40:44.882Z,9.83
2023-02-24T17:41:46.969Z,9.34
2023-02-24T17:42:49.498Z,8.91
2023-02-24T17:43:52.971Z,8.52
2023-02-24T17:44:54.813Z,8.17
2023-02-24T17:45:56.943Z,7.88
2023-02-24T17:46:59.868Z,7.66
2023-02-24T17:48:12.673Z,7.75
2023-02-24T17:49:14.924Z,8.35
2023-02-24T17:50:16.965Z,8.99
2023-02-24T17:51:20.292Z,9.59
2023-02-24T17:52:22.444Z,10.09
2023-02-24T17:53:26.197Z,10.28
2023-02-24T17:54:28.128Z,10.04
2023-02-24T17:55:29.879Z,9.61
2023-02-24T17:56:31.677Z,9.17
2023-02-24T17:57:35.153Z,8.74
2023-02-24T17:58:38.701Z,8.35
2023-02-24T17:59:43.357Z,8.00
2023-02-24T18:00:45.419Z,7.70
2023-02-24T18:01:47.720Z,7.45
2023-02-24T18:02:49.941Z,7.30
2023-02-24T18:03:52.357Z,7.55
2023-02-24T18:04:55.485Z,8.14
2023-02-24T18:06:21.459Z,8.80
2023-02-24T18:07:25.266Z,9.63
2023-02-24T18:08:28.029Z,10.01
2023-02-24T18:09:29.969Z,9.96
2023-02-24T18:10:33.009Z,9.60
2023-02-24T18:11:35.524Z,9.16
2023-02-24T18:12:38.609Z,8.73
2023-02-24T18:13:40.529Z,8.35
2023-02-24T18:14:42.517Z,8.01
2023-02-24T18:15:44.414Z,7.71
2023-02-24T18:16:46.550Z,7.45
2023-02-24T18:17:48.578Z,7.23
2023-02-24T18:18:50.726Z,7.25
2023-02-24T18:19:56.035Z,7.71
2023-02-24T18:21:06.018Z,8.41
2023-02-24T18:22:08.488Z,9.14
2023-02-24T18:23:12.113Z,9.71
2023-02-24T18:24:14.062Z,10.04
2023-02-24T18:25:16.151Z,9.92
2023-02-24T18:26:18.484Z,9.55
2023-02-24T18:27:22.263Z,9.10
2023-02-24T18:28:24.113Z,8.68
2023-02-24T18:29:25.907Z,8.31
2023-02-24T18:30:27.865Z,7.97
2023-02-24T18:31:29.982Z,7.70
2023-02-24T18:32:31.991Z,7.46
2023-02-24T18:33:33.860Z,7.26
2023-02-24T18:34:36.028Z,7.31
2023-02-24T18:35:38.883Z,7.81
2023-02-24T18:36:41.267Z,8.48
2023-02-24T18:37:43.649Z,9.12
2023-02-24T18:38:45.874Z,9.69
2023-02-24T18:39:48.004Z,10.06
2023-02-24T18:40:58.341Z,9.97
2023-02-24T18:42:00.559Z,9.55
2023-02-24T18:43:02.630Z,9.13
2023-02-24T18:44:04.678Z,8.72
2023-02-24T18:45:06.948Z,8.34
2023-02-24T18:46:13.302Z,8.00
2023-02-24T18:47:15.169Z,7.68
2023-02-24T18:48:17.050Z,7.42
2023-02-24T18:49:19.004Z,7.23
2023-02-24T18:50:25.153Z,7.36
2023-02-24T18:51:29.137Z,7.92
2023-02-24T18:52:31.057Z,8.59
2023-02-24T18:53:36.835Z,9.21
2023-02-24T18:54:39.395Z,9.77
2023-02-24T18:55:41.238Z,10.00
2023-02-24T18:56:43.082Z,9.80
2023-02-24T18:59:50.151Z,8.52
2023-02-24T19:00:51.013Z,8.12
2023-02-24T19:01:52.597Z,7.79
2023-02-24T19:02:52.996Z,7.47
2023-02-24T19:03:56.899Z,7.19
2023-02-24T19:04:57.297Z,7.02
2023-02-24T19:05:57.749Z,7.27
2023-02-24T19:06:58.418Z,7.80
2023-02-24T19:07:58.916Z,8.41
2023-02-24T19:09:05.916Z,8.98
2023-02-24T19:10:06.458Z,9.51
2023-02-24T19:11:11.800Z,9.76
2023-02-24T19:12:11.985Z,9.56
2023-02-24T19:13:12.272Z,9.14
2023-02-24T19:14:44.147Z,8.46
2023-02-24T19:15:45.927Z,8.01
2023-02-24T19:16:47.679Z,7.64
2023-02-24T19:17:49.530Z,7.32
2023-02-24T19:18:52.837Z,7.04
2023-02-24T19:19:54.948Z,7.03
2023-02-24T19:20:57.034Z,7.44
2023-02-24T19:21:58.814Z,8.02
2023-02-24T19:23:01.442Z,8.61
2023-02-24T19:24:03.875Z,9.13
2023-02-24T19:25:05.618Z,9.56
2023-02-24T19:26:14.978Z,9.66
2023-02-24T19:27:16.708Z,9.31
2023-02-24T19:28:18.546Z,8.85
2023-02-24T19:29:21.309Z,8.39
2023-02-24T19:30:23.091Z,7.95
2023-02-24T19:31:26.776Z,7.59
2023-02-24T19:32:28.783Z,7.26
2023-02-24T19:33:31.012Z,7.00
2023-02-24T19:34:33.601Z,7.03
2023-02-24T19:35:39.255Z,7.49
2023-02-24T19:38:00.736Z,8.93
2023-02-24T19:39:03.564Z,9.44
2023-02-24T19:40:08.642Z,9.76
2023-02-24T19:41:10.335Z,9.63
2023-02-24T19:42:12.554Z,9.22
2023-02-24T19:43:14.177Z,8.75
2023-02-24T19:44:15.851Z,8.32
2023-02-24T19:45:17.944Z,7.92
2023-02-24T19:46:20.138Z,7.57
2023-02-24T19:47:22.413Z,7.26
2023-02-24T19:48:24.282Z,7.03
2023-02-24T19:49:26.074Z,7.12
2023-02-24T19:50:27.904Z,7.61
2023-02-24T19:51:30.354Z,8.25
2023-02-24T19:52:32.168Z,8.89
2023-02-24T19:53:33.926Z,9.43
2023-02-24T19:54:35.716Z,9.81
2023-02-24T19:55:37.644Z,9.76
2023-02-24T19:56:39.290Z,9.39
2023-02-24T19:57:40.964Z,8.92
2023-02-24T19:58:42.556Z,8.46
2023-02-24T19:59:44.735Z,8.04
2023-02-24T20:00:48.017Z,7.68
2023-02-24T20:01:51.702Z,7.36
2023-02-24T20:02:53.373Z,7.09
2023-02-24T20:03:57.654Z,7.14
2023-02-24T20:04:59.627Z,7.61
2023-02-24T20:06:01.568Z,8.25
2023-02-24T20:07:03.326Z,8.86
2023-02-24T20:08:05.042Z,9.40
2023-02-24T20:09:08.487Z,9.81
2023-02-24T20:10:11.257Z,9.81
2023-02-24T20:11:13.392Z,9.47
2023-02-24T20:12:15.601Z,9.03
2023-02-24T20:13:17.238Z,8.60
2023-02-24T20:14:20.121Z,8.22
2023-02-24T20:15:21.797Z,7.88
2023-02-24T20:16:25.797Z,7.60
2023-02-24T20:17:28.041Z,7.34
2023-02-24T20:18:30.430Z,7.22
2023-02-24T20:19:33.897Z,7.53
2023-02-24T20:20:36.150Z,8.13
2023-02-24T20:21:41.188Z,8.78
2023-02-24T20:22:42.930Z,9.39
2023-02-24T20:23:45.757Z,9.87
2023-02-24T20:24:47.617Z,10.00
2023-02-24T20:25:53.163Z,9.74
2023-02-24T20:26:54.762Z,9.29
2023-02-24T20:27:56.455Z,8.85
2023-02-24T20:29:00.415Z,8.45
2023-02-24T20:30:02.225Z,8.07
2023-02-24T20:31:09.134Z,7.77
2023-02-24T20:32:10.839Z,7.47
2023-02-24T20:33:13.221Z,7.22
2023-02-24T20:34:16.640Z,7.25
2023-02-24T20:35:18.437Z,7.71
2023-02-24T20:36:22.493Z,8.34
2023-02-24T20:37:24.597Z,8.98
2023-02-24T20:38:26.825Z,9.51
2023-02-24T20:39:28.640Z,9.87
2023-02-24T20:40:31.966Z,9.80
2023-02-24T20:41:33.613Z,9.41
2023-02-24T20:42:35.179Z,8.97
2023-02-24T20:43:37.599Z,8.53
2023-02-24T20:44:39.253Z,8.13
2023-02-24T20:45:40.992Z,7.77
2023-02-24T20:46:42.827Z,7.47
2023-02-24T20:47:47.066Z,7.21
2023-02-24T20:48:49.292Z,7.00
2023-02-24T20:49:51.556Z,7.06
2023-02-24T20:50:53.454Z,7.54
2023-02-24T20:51:55.119Z,8.15
2023-02-24T20:52:56.724Z,8.75
2023-02-24T20:53:58.945Z,9.27
2023-02-24T20:55:00.836Z,9.52
2023-02-24T20:56:03.911Z,9.35
2023-02-24T20:57:08.895Z,8.95
2023-02-24T20:58:10.597Z,8.49
2023-02-24T20:59:13.709Z,8.07
2023-02-24T21:00:15.549Z,7.69
2023-02-24T21:01:17.811Z,7.38
2023-02-24T21:02:19.436Z,7.10
2023-02-24T21:03:23.817Z,6.85
2023-02-24T21:04:25.542Z,6.79
2023-02-24T21:05:27.773Z,7.15
2023-02-24T21:06:29.929Z,7.76
2023-02-24T21:07:32.142Z,8.42
2023-02-24T21:08:35.025Z,9.01
2023-02-24T21:09:38.239Z,9.47
2023-02-24T21:10:45.893Z,9.55
2023-02-24T21:11:47.472Z,9.23
2023-02-24T21:12:52.455Z,8.80
2023-02-24T21:13:54.298Z,8.35
2023-02-24T21:14:56.098Z,7.92
2023-02-24T21:15:57.813Z,7.54
2023-02-24T21:16:59.570Z,7.22
2023-02-24T21:18:01.830Z,6.95
2023-02-24T21:19:03.530Z,6.92
2023-02-24T21:20:05.908Z,7.31
2023-02-24T21:21:08.836Z,7.93
2023-02-24T21:22:10.761Z,8.59
2023-02-24T21:23:14.996Z,9.15
2023-02-24T21:24:16.676Z,9.62
2023-02-24T21:25:18.363Z,9.72
2023-02-24T21:26:21.000Z,9.43
2023-02-24T21:27:23.314Z,8.98
2023-02-24T21:28:25.564Z,8.53
2023-02-24T21:29:27.590Z,8.10
2023-02-24T21:30:29.432Z,7.73
2023-02-24T21:31:31.242Z,7.42
2023-02-24T21:32:33.365Z,7.15
2023-02-24T21:33:35.412Z,7.03
2023-02-24T21:34:37.967Z,7.32
2023-02-24T21:35:40.235Z,7.88
2023-02-24T21:36:42.223Z,8.52
2023-02-24T21:37:44.278Z,9.09
2023-02-24T21:38:46.387Z,9.56
2023-02-24T21:39:49.082Z,9.74
2023-02-24T21:40:50.785Z,9.48
2023-02-24T21:41:53.287Z,9.02
2023-02-24T21:42:54.916Z,8.53
2023-02-24T21:43:56.986Z,8.07
2023-02-24T21:45:02.313Z,7.68
2023-02-24T21:46:05.758Z,7.31
2023-02-24T21:47:08.315Z,7.01
2023-02-24T21:48:10.993Z,6.93
2023-02-24T21:49:16.031Z,7.29
2023-02-24T21:50:28.320Z,7.92
2023-02-24T21:51:30.157Z,8.64
2023-02-24T21:52:32.590Z,9.18
2023-02-24T21:53:35.736Z,9.60
2023-02-24T21:54:37.835Z,9.63
2023-02-24T21:55:40.195Z,9.29
2023-02-24T21:56:41.854Z,8.81
2023-02-24T21:57:44.749Z,8.34
2023-02-24T21:58:51.056Z,7.91
2023-02-24T21:59:53.950Z,7.53
2023-02-24T22:00:55.916Z,7.19
2023-02-24T22:01:57.613Z,6.91
2023-02-24T22:02:59.349Z,6.92
2023-02-24T22:04:04.663Z,7.34
2023-02-24T22:05:06.824Z,7.99
2023-02-24T22:06:10.692Z,8.60
2023-02-24T22:07:12.404Z,9.15
2023-02-24T22:08:14.124Z,9.57
2023-02-24T22:09:20.061Z,9.62
2023-02-24T22:10:22.950Z,9.27
2023-02-24T22:11:24.676Z,8.80
2023-02-24T22:12:26.482Z,8.34
2023-02-24T22:13:28.392Z,7.90
2023-02-24T22:14:30.019Z,7.51
2023-02-24T22:15:31.671Z,7.19
2023-02-24T22:16:33.396Z,6.94
2023-02-24T22:17:36.182Z,7.10
2023-02-24T22:18:40.616Z,7.63
2023-02-24T22:19:42.273Z,8.22
2023-02-24T22:20:44.314Z,8.78
2023-02-24T22:21:46.346Z,9.26
2023-02-24T22:22:48.207Z,9.63
2023-02-24T22:23:51.667Z,9.63
2023-02-24T22:24:54.875Z,9.26
2023-02-24T22:25:57.029Z,8.78
2023-02-24T22:26:58.647Z,8.31
2023-02-24T22:28:00.348Z,7.87
2023-02-24T22:29:02.283Z,7.47
2023-02-24T22:30:04.206Z,7.13
2023-02-24T22:31:06.842Z,7.00